Barnard Township, Maine
Current Conditions -  °F | °C
As of 3:53 AM on Thursday 23 Oct 2014 (Local Time) from KMLT Reporting Station
Haze Haze  
Wind Chill: 38°   Ceiling: 700
Heat Index: 44°   Visibility: 3mi
Dew Point: 42°   Wind: 12mph
Humidity: 93%   Direction: 40°NE
Pressure: 30.12"   Gusts: NA
Location:  45.4731°N, 69.1129°W
Report Text: KMLT 230753Z AUTO 04010KT 3SM BR OVC007 07/06 A3012 RMK AO2 RAB19E50 CIG 005V012 SLP208 P0001 T00670056
Loading
Personal Weather Stations






























Interactive Weather Map
Tropical Storm Tracking
New forecast layout! Learn more

10-Day Weather Forecast

Advertisements
Track Severe Weather on mobile